createdAt,value
2017-01-09T17:31:36.555Z,-0.55
2017-01-09T17:32:52.034Z,-0.56
2017-01-09T17:34:07.301Z,-0.46
2017-01-09T17:35:22.068Z,-0.45
2017-01-09T17:36:36.439Z,-0.38
2017-01-09T17:37:50.053Z,-0.31
2017-01-09T17:39:04.282Z,-0.3
2017-01-09T17:40:18.575Z,-0.37
2017-01-09T17:41:33.533Z,-0.37
2017-01-09T17:42:47.618Z,-0.4
2017-01-09T17:43:57.993Z,-0.48
2017-01-09T17:45:08.243Z,-0.56
2017-01-09T17:46:18.112Z,-0.48
2017-01-09T17:47:28.022Z,-0.63
2017-01-09T17:48:38.354Z,-0.59
2017-01-09T17:49:48.208Z,-0.64
2017-01-09T17:50:58.550Z,-0.66
2017-01-09T17:52:08.385Z,-0.67
2017-01-09T17:53:18.228Z,-0.74
2017-01-09T17:54:27.650Z,-0.71
2017-01-09T17:55:37.494Z,-0.78
2017-01-09T17:56:47.345Z,-0.71
2017-01-09T17:57:57.599Z,-0.63
2017-01-09T17:59:07.055Z,-0.63
2017-01-09T18:00:17.052Z,-0.64
2017-01-09T18:01:27.375Z,-0.58
2017-01-09T18:02:37.621Z,-0.56
2017-01-09T18:03:47.981Z,-0.59
2017-01-09T18:04:58.367Z,-0.63
2017-01-09T18:06:08.645Z,-0.55
2017-01-09T18:07:18.474Z,-0.52
2017-01-09T18:08:28.383Z,-0.49
2017-01-09T18:09:38.277Z,-0.53
2017-01-09T18:10:48.542Z,-0.52
2017-01-09T18:11:59.994Z,-0.53
2017-01-09T18:13:09.853Z,-0.52
2017-01-09T18:14:20.241Z,-0.46
2017-01-09T18:15:30.532Z,-0.48
2017-01-09T18:16:40.867Z,-0.4
2017-01-09T18:17:50.730Z,-0.43
2017-01-09T18:19:00.990Z,-0.49
2017-01-09T18:20:11.275Z,-0.56
2017-01-09T18:21:21.530Z,-0.6
2017-01-09T18:22:31.799Z,-0.53
2017-01-09T18:23:41.699Z,-0.6
2017-01-09T18:24:52.120Z,-0.56
2017-01-09T18:26:02.499Z,-0.48
2017-01-09T18:27:12.347Z,-0.46
2017-01-09T18:28:22.742Z,-0.49
2017-01-09T18:29:32.583Z,-0.48
2017-01-09T18:30:42.843Z,-0.35
2017-01-09T18:31:53.162Z,-0.34
2017-01-09T18:33:03.617Z,-0.49
2017-01-09T18:34:13.944Z,-0.46
2017-01-09T18:35:23.950Z,-0.4
2017-01-09T18:36:33.820Z,-0.43
2017-01-09T18:37:44.083Z,-0.33
2017-01-09T18:38:54.410Z,-0.41
2017-01-09T18:40:04.833Z,-0.45
2017-01-09T18:41:14.717Z,-0.4
2017-01-09T18:42:25.095Z,-0.49
2017-01-09T18:43:35.457Z,-0.51
2017-01-09T18:44:45.745Z,-0.46
2017-01-09T18:45:56.019Z,-0.4
2017-01-09T18:47:06.282Z,-0.52
2017-01-09T18:48:16.540Z,-0.53
2017-01-09T18:49:26.808Z,-0.56
2017-01-09T18:50:36.665Z,-0.64
2017-01-09T18:51:46.964Z,-0.66
2017-01-09T18:52:56.816Z,-0.6
2017-01-09T18:54:06.740Z,-0.64
2017-01-09T18:55:16.637Z,-0.64
2017-01-09T18:56:26.928Z,-0.66
2017-01-09T18:57:37.400Z,-0.6
2017-01-09T18:58:47.688Z,-0.63
2017-01-09T18:59:57.921Z,-0.6
2017-01-09T19:01:07.775Z,-0.53
2017-01-09T19:02:18.069Z,-0.66
2017-01-09T19:03:28.321Z,-0.64
2017-01-09T19:04:38.194Z,-0.63
2017-01-09T19:05:48.442Z,-0.58
2017-01-09T19:06:57.890Z,-0.64
2017-01-09T19:08:07.774Z,-0.67
2017-01-09T19:09:18.022Z,-0.59
2017-01-09T19:10:28.313Z,-0.67
2017-01-09T19:11:38.578Z,-0.77
2017-01-09T19:12:49.012Z,-0.71
2017-01-09T19:13:59.280Z,-0.71
2017-01-09T19:15:09.519Z,-0.74
2017-01-09T19:16:19.385Z,-0.76
2017-01-09T19:17:29.646Z,-0.74
2017-01-09T19:18:39.911Z,-0.76
2017-01-09T19:19:50.230Z,-0.67
2017-01-09T19:21:00.898Z,-0.63
